createdAt,value
2019-03-27T00:02:30.256Z,8.81
2019-03-27T00:08:41.678Z,8.91
2019-03-27T00:11:16.487Z,8.91
2019-03-27T00:13:47.721Z,8.79
2019-03-27T00:19:07.890Z,8.62
2019-03-27T00:24:36.892Z,8.62
2019-03-27T00:27:07.395Z,8.61
2019-03-27T00:29:56.488Z,8.61
2019-03-27T00:47:51.444Z,8.50
2019-03-27T00:56:02.280Z,8.41
2019-03-27T01:05:02.033Z,8.37
2019-03-27T01:11:08.112Z,8.26
2019-03-27T01:16:41.378Z,8.39
2019-03-27T01:31:06.429Z,8.35
2019-03-27T01:33:47.536Z,8.29
2019-03-27T01:36:29.158Z,8.29
2019-03-27T01:53:14.585Z,8.41
2019-03-27T01:58:33.942Z,8.35
2019-03-27T02:01:15.052Z,8.32
2019-03-27T02:04:04.438Z,8.32
2019-03-27T02:15:29.658Z,8.12
2019-03-27T02:21:09.895Z,8.16
2019-03-27T02:32:35.386Z,7.99
2019-03-27T03:15:43.986Z,7.84
2019-03-27T03:36:06.264Z,7.62
2019-03-27T03:48:08.809Z,7.51
2019-03-27T03:50:49.879Z,7.53
2019-03-27T03:53:22.693Z,7.53
2019-03-27T03:56:22.001Z,7.53
2019-03-27T03:58:53.366Z,7.51
2019-03-27T04:21:56.393Z,6.63
2019-03-27T04:40:20.372Z,6.49
2019-03-27T04:43:01.969Z,6.43
2019-03-27T04:46:02.095Z,6.35
2019-03-27T04:48:43.247Z,6.33
2019-03-27T04:54:41.057Z,6.19
2019-03-27T04:57:21.816Z,6.18
2019-03-27T05:00:03.325Z,6.12
2019-03-27T05:03:12.600Z,6.13
2019-03-27T05:09:22.903Z,6.12
2019-03-27T05:11:54.648Z,6.07
2019-03-27T05:17:52.363Z,6.08
2019-03-27T05:20:34.060Z,6.14
2019-03-27T05:23:15.590Z,6.16
2019-03-27T05:26:16.644Z,6.20
2019-03-27T05:28:57.468Z,6.26
2019-03-27T05:31:38.924Z,6.37
2019-03-27T05:34:20.514Z,6.42
2019-03-27T05:36:52.716Z,6.50
2019-03-27T05:39:41.798Z,6.66
2019-03-27T05:48:20.022Z,6.84
2019-03-27T05:51:01.082Z,6.90
2019-03-27T05:54:02.057Z,7.08
2019-03-27T05:56:42.984Z,7.26
2019-03-27T06:02:42.017Z,7.45
2019-03-27T06:05:23.223Z,7.52
2019-03-27T06:08:04.197Z,7.52
2019-03-27T06:10:45.213Z,7.59
2019-03-27T06:13:26.868Z,7.57
2019-03-27T06:15:57.558Z,7.57
2019-03-27T06:18:58.476Z,7.72
2019-03-27T06:21:39.894Z,7.72
2019-03-27T06:27:23.300Z,7.76
2019-03-27T06:32:50.166Z,7.70
2019-03-27T06:41:53.380Z,7.70
2019-03-27T06:45:03.115Z,7.90
2019-03-27T06:47:44.051Z,8.04
2019-03-27T06:50:25.476Z,8.39
2019-03-27T06:53:34.844Z,8.39
2019-03-27T06:59:17.782Z,8.78
2019-03-27T07:02:28.998Z,8.99
2019-03-27T07:05:30.329Z,9.14
2019-03-27T07:08:31.521Z,9.42
2019-03-27T07:11:12.502Z,9.67
2019-03-27T07:14:21.695Z,9.82
2019-03-27T07:17:22.599Z,10.04
2019-03-27T07:20:23.850Z,10.19
2019-03-27T07:29:13.381Z,10.71
2019-03-27T07:35:43.495Z,10.84
2019-03-27T07:38:52.668Z,11.00
2019-03-27T07:42:02.088Z,11.17
2019-03-27T07:44:53.125Z,11.15
2019-03-27T07:47:33.963Z,11.15
2019-03-27T07:53:26.233Z,11.09
2019-03-27T07:59:17.942Z,11.23
2019-03-27T08:02:27.254Z,11.25
2019-03-27T08:05:16.512Z,11.35
2019-03-27T08:11:21.744Z,11.50
2019-03-27T08:14:03.074Z,10.78
2019-03-27T08:16:44.021Z,11.63
2019-03-27T08:19:53.385Z,11.86
2019-03-27T08:22:54.919Z,11.95
2019-03-27T08:28:37.822Z,12.10
2019-03-27T08:31:19.495Z,12.23
2019-03-27T08:34:01.163Z,12.23
2019-03-27T08:37:10.756Z,12.10
2019-03-27T08:39:43.482Z,12.31
2019-03-27T08:42:14.751Z,12.50
2019-03-27T08:44:46.408Z,12.47
2019-03-27T08:47:16.761Z,12.39
2019-03-27T08:49:47.362Z,12.44
2019-03-27T08:52:36.854Z,12.36
2019-03-27T08:55:26.046Z,12.02
2019-03-27T09:01:08.477Z,12.52
2019-03-27T09:04:09.292Z,12.65
2019-03-27T09:06:50.918Z,12.37
2019-03-27T09:12:22.377Z,11.81
2019-03-27T09:15:32.340Z,12.60
2019-03-27T09:18:24.537Z,12.80
2019-03-27T09:20:56.288Z,12.94
2019-03-27T09:23:37.781Z,12.64
2019-03-27T09:26:28.277Z,12.68
2019-03-27T09:29:19.213Z,12.74
2019-03-27T09:32:01.208Z,13.01
2019-03-27T09:34:34.285Z,13.08
2019-03-27T09:37:06.943Z,12.63
2019-03-27T09:39:40.750Z,12.84
2019-03-27T09:42:14.139Z,12.59
2019-03-27T09:44:45.823Z,12.85
2019-03-27T09:47:17.589Z,13.06
2019-03-27T09:49:50.140Z,13.02
2019-03-27T09:52:21.787Z,13.05
2019-03-27T09:55:03.685Z,13.36
2019-03-27T09:57:36.110Z,13.64
2019-03-27T10:00:13.279Z,13.85
2019-03-27T10:02:44.980Z,13.95
2019-03-27T10:05:17.939Z,13.76
2019-03-27T10:07:49.715Z,13.75
2019-03-27T10:10:22.826Z,13.97
2019-03-27T10:13:04.304Z,14.18
2019-03-27T10:15:46.434Z,14.47
2019-03-27T10:23:53.013Z,14.58
2019-03-27T10:26:25.103Z,14.41
2019-03-27T10:28:57.967Z,14.27
2019-03-27T10:31:29.116Z,14.61
2019-03-27T10:33:59.844Z,14.54
2019-03-27T10:36:31.253Z,14.23
2019-03-27T10:39:02.546Z,14.39
2019-03-27T10:41:51.911Z,14.49
2019-03-27T10:44:41.386Z,14.65
2019-03-27T10:47:13.167Z,14.40
2019-03-27T10:50:17.693Z,14.58
2019-03-27T10:52:51.513Z,13.69
2019-03-27T10:55:34.620Z,13.03
2019-03-27T10:58:35.507Z,13.84
2019-03-27T11:01:17.706Z,14.22
2019-03-27T11:04:27.383Z,14.37
2019-03-27T11:10:10.559Z,14.84
2019-03-27T11:12:52.157Z,14.91
2019-03-27T11:15:23.076Z,14.95
2019-03-27T11:18:33.608Z,14.85
2019-03-27T11:21:10.584Z,14.89
2019-03-27T11:23:59.980Z,15.04
2019-03-27T11:27:02.308Z,14.91
2019-03-27T11:35:51.538Z,14.96
2019-03-27T11:38:31.231Z,15.26
2019-03-27T11:41:12.470Z,15.41
2019-03-27T11:43:54.220Z,14.84
2019-03-27T11:46:34.118Z,14.84
2019-03-27T11:49:24.762Z,14.57
2019-03-27T11:52:14.900Z,14.69
2019-03-27T11:58:10.380Z,15.03
2019-03-27T12:04:09.877Z,15.16
2019-03-27T12:07:19.206Z,15.23
2019-03-27T12:09:50.777Z,15.21
2019-03-27T12:13:00.391Z,14.97
2019-03-27T12:15:49.563Z,14.75
2019-03-27T12:18:40.213Z,14.24
2019-03-27T12:21:31.666Z,13.47
2019-03-27T12:24:32.799Z,13.72
2019-03-27T12:27:14.663Z,14.74
2019-03-27T12:29:45.719Z,14.86
2019-03-27T12:35:18.877Z,14.61
2019-03-27T12:37:49.472Z,14.74
2019-03-27T12:40:22.203Z,14.66
2019-03-27T12:42:54.389Z,14.86
2019-03-27T12:45:26.036Z,14.87
2019-03-27T12:47:56.814Z,14.89
2019-03-27T12:50:28.801Z,15.00
2019-03-27T12:53:00.538Z,14.81
2019-03-27T12:55:33.304Z,14.54
2019-03-27T13:00:53.916Z,15.15
2019-03-27T13:03:25.550Z,15.13
2019-03-27T13:06:34.910Z,15.38
2019-03-27T13:09:15.782Z,15.54
2019-03-27T13:12:24.374Z,15.60
2019-03-27T13:15:06.201Z,15.40
2019-03-27T13:17:40.616Z,15.41
2019-03-27T13:20:16.343Z,15.65
2019-03-27T13:22:51.863Z,15.77
2019-03-27T13:25:22.600Z,14.87
2019-03-27T13:28:00.748Z,15.53
2019-03-27T13:30:32.543Z,15.47
2019-03-27T13:33:03.401Z,15.56
2019-03-27T13:35:35.575Z,15.59
2019-03-27T13:38:11.115Z,15.34
2019-03-27T13:43:43.292Z,15.44
2019-03-27T13:46:34.408Z,15.48
2019-03-27T13:49:15.588Z,15.67
2019-03-27T13:51:47.340Z,15.54
2019-03-27T13:57:31.541Z,15.84
2019-03-27T14:03:28.059Z,15.14
2019-03-27T14:06:09.614Z,15.36
2019-03-27T14:12:24.412Z,15.61
2019-03-27T14:15:24.053Z,15.74
2019-03-27T14:18:06.790Z,15.89
2019-03-27T14:20:48.559Z,15.88
2019-03-27T14:23:57.831Z,15.74
2019-03-27T14:26:47.263Z,15.48
2019-03-27T14:29:36.929Z,15.26
2019-03-27T14:32:26.329Z,15.42
2019-03-27T14:34:57.781Z,15.16
2019-03-27T14:37:28.409Z,15.21
2019-03-27T14:39:59.444Z,15.30
2019-03-27T14:42:31.178Z,15.41
2019-03-27T14:45:02.113Z,15.21
2019-03-27T14:47:32.981Z,15.19
2019-03-27T14:50:04.502Z,14.79
2019-03-27T14:52:37.049Z,14.99
2019-03-27T14:55:08.955Z,15.25
2019-03-27T14:57:40.408Z,15.13
2019-03-27T15:00:12.311Z,15.04
2019-03-27T15:02:43.254Z,14.89
2019-03-27T15:05:14.464Z,14.87
2019-03-27T15:07:45.376Z,14.87
2019-03-27T15:10:18.908Z,14.96
2019-03-27T15:12:49.999Z,15.16
2019-03-27T15:15:20.822Z,15.32
2019-03-27T15:17:51.624Z,15.44
2019-03-27T15:20:22.782Z,15.30
2019-03-27T15:22:57.507Z,15.46
2019-03-27T15:25:34.407Z,15.63
2019-03-27T15:28:06.790Z,15.37
2019-03-27T15:30:37.709Z,15.22
2019-03-27T15:33:08.405Z,14.86
2019-03-27T15:35:39.553Z,14.80
2019-03-27T15:38:28.764Z,14.60
2019-03-27T15:44:30.969Z,14.55
2019-03-27T15:47:12.710Z,14.47
2019-03-27T15:50:23.125Z,14.34
2019-03-27T15:52:55.137Z,14.53
2019-03-27T15:55:25.853Z,14.56
2019-03-27T15:57:56.512Z,14.40
2019-03-27T16:00:27.369Z,14.59
2019-03-27T16:02:58.078Z,14.61
2019-03-27T16:05:33.057Z,14.46
2019-03-27T16:08:03.832Z,14.41
2019-03-27T16:10:34.272Z,14.49
2019-03-27T16:13:05.299Z,14.57
2019-03-27T16:15:37.297Z,14.75
2019-03-27T16:18:08.352Z,14.64
2019-03-27T16:20:39.195Z,15.34
2019-03-27T16:23:11.177Z,16.11
2019-03-27T16:25:42.456Z,17.42
2019-03-27T16:28:13.461Z,17.75
2019-03-27T16:30:47.901Z,17.20
2019-03-27T16:33:18.779Z,16.74
2019-03-27T16:35:49.913Z,16.27
2019-03-27T16:38:20.609Z,15.44
2019-03-27T16:40:51.532Z,14.96
2019-03-27T16:43:22.199Z,14.84
2019-03-27T16:45:53.933Z,14.49
2019-03-27T16:48:24.832Z,14.25
2019-03-27T16:50:56.018Z,14.19
2019-03-27T16:54:05.651Z,13.93
2019-03-27T16:56:55.217Z,13.87
2019-03-27T17:02:27.382Z,13.58
2019-03-27T17:05:09.346Z,13.57
2019-03-27T17:07:51.312Z,13.46
2019-03-27T17:10:33.033Z,13.40
2019-03-27T17:13:14.593Z,13.29
2019-03-27T17:19:31.102Z,13.08
2019-03-27T17:22:18.517Z,12.96
2019-03-27T17:24:37.772Z,12.20
2019-03-27T17:27:08.316Z,12.69
2019-03-27T17:29:38.853Z,12.37
2019-03-27T17:32:09.741Z,12.18
2019-03-27T17:34:40.385Z,12.21
2019-03-27T17:37:10.936Z,12.62
2019-03-27T17:39:41.465Z,12.36
2019-03-27T17:42:12.182Z,12.40
2019-03-27T17:44:43.240Z,12.78
2019-03-27T17:47:14.377Z,12.49
2019-03-27T17:49:46.031Z,12.42
2019-03-27T17:52:16.788Z,12.42
2019-03-27T17:54:47.880Z,12.49
2019-03-27T17:57:21.575Z,12.53
2019-03-27T17:59:52.409Z,12.59
2019-03-27T18:02:23.222Z,12.51
2019-03-27T18:04:53.882Z,12.60
2019-03-27T18:07:24.581Z,12.55
2019-03-27T18:09:55.195Z,12.60
2019-03-27T18:12:26.360Z,12.66
2019-03-27T18:14:57.387Z,12.62
2019-03-27T18:17:27.864Z,12.65
2019-03-27T18:19:58.615Z,12.69
2019-03-27T18:22:29.729Z,12.66
2019-03-27T18:25:00.406Z,12.66
2019-03-27T18:27:30.887Z,12.56
2019-03-27T18:30:01.817Z,12.51
2019-03-27T18:32:32.559Z,12.52
2019-03-27T18:35:03.204Z,12.58
2019-03-27T18:37:33.535Z,12.51
2019-03-27T18:40:05.202Z,12.46
2019-03-27T18:42:35.757Z,12.48
2019-03-27T18:45:07.054Z,12.45
2019-03-27T18:47:38.569Z,12.46
2019-03-27T18:50:10.944Z,12.46
2019-03-27T18:52:42.047Z,12.46
2019-03-27T18:58:35.087Z,12.42
2019-03-27T19:01:06.265Z,12.34
2019-03-27T19:03:37.203Z,12.25
2019-03-27T19:06:07.889Z,12.66
2019-03-27T19:08:40.155Z,12.56
2019-03-27T19:11:29.898Z,12.50
2019-03-27T19:14:11.527Z,12.39
2019-03-27T19:19:55.651Z,12.38
2019-03-27T19:22:46.641Z,12.30
2019-03-27T19:25:18.300Z,12.19
2019-03-27T19:27:48.885Z,12.14
2019-03-27T19:33:39.023Z,12.02
2019-03-27T19:36:20.729Z,12.01
2019-03-27T19:39:30.109Z,11.97
2019-03-27T19:42:19.487Z,12.03
2019-03-27T19:47:53.424Z,11.92
2019-03-27T19:50:24.036Z,11.84
2019-03-27T19:52:54.786Z,11.72
2019-03-27T19:55:26.948Z,11.73
2019-03-27T19:57:58.001Z,10.83
2019-03-27T20:00:28.901Z,11.59
2019-03-27T20:03:00.096Z,11.57
2019-03-27T20:06:08.057Z,11.64
2019-03-27T20:08:57.446Z,11.65
2019-03-27T20:11:39.154Z,11.66
2019-03-27T20:14:19.912Z,11.67
2019-03-27T20:16:50.910Z,11.60
2019-03-27T20:19:22.027Z,11.58
2019-03-27T20:21:55.664Z,10.90
2019-03-27T20:24:40.194Z,11.67
2019-03-27T20:27:01.099Z,11.62
2019-03-27T20:29:35.528Z,11.66
2019-03-27T20:32:08.445Z,11.63
2019-03-27T20:34:41.759Z,11.59
2019-03-27T20:37:18.101Z,11.62
2019-03-27T20:42:58.428Z,11.56
2019-03-27T20:45:30.264Z,11.31
2019-03-27T20:48:02.930Z,11.28
2019-03-27T20:50:34.860Z,11.35
2019-03-27T20:53:08.676Z,10.71
2019-03-27T20:55:39.877Z,11.41
2019-03-27T20:58:16.114Z,11.38
2019-03-27T21:00:46.939Z,11.34
2019-03-27T21:03:17.523Z,11.27
2019-03-27T21:06:26.687Z,11.21
2019-03-27T21:09:36.444Z,11.25
2019-03-27T21:12:25.537Z,10.34
2019-03-27T21:18:36.365Z,11.35
2019-03-27T21:21:18.038Z,11.26
2019-03-27T21:23:59.730Z,11.30
2019-03-27T21:26:59.972Z,11.36
2019-03-27T21:29:41.733Z,11.42
2019-03-27T21:35:01.784Z,11.40
2019-03-27T21:38:02.416Z,11.44
2019-03-27T21:40:44.173Z,11.42
2019-03-27T21:46:43.372Z,11.21
2019-03-27T21:49:14.567Z,11.27
2019-03-27T21:51:45.095Z,11.21
2019-03-27T21:54:17.429Z,11.15
2019-03-27T21:56:47.929Z,11.15
2019-03-27T21:59:18.673Z,11.12
2019-03-27T22:04:58.764Z,11.09
2019-03-27T22:07:39.610Z,11.12
2019-03-27T22:13:22.037Z,11.17
2019-03-27T22:16:04.020Z,11.20
2019-03-27T22:18:45.150Z,11.24
2019-03-27T22:21:26.296Z,11.29
2019-03-27T22:24:07.504Z,11.30
2019-03-27T22:27:08.089Z,11.36
2019-03-27T22:29:49.476Z,11.36
2019-03-27T22:35:41.956Z,11.31
2019-03-27T22:38:23.403Z,11.30
2019-03-27T22:41:04.042Z,11.28
2019-03-27T22:44:13.351Z,11.32
2019-03-27T22:50:15.644Z,11.34
2019-03-27T22:52:56.626Z,11.26
2019-03-27T22:56:06.370Z,11.22
2019-03-27T22:58:55.518Z,11.22
2019-03-27T23:05:12.793Z,11.03
2019-03-27T23:08:04.646Z,11.05
2019-03-27T23:10:47.121Z,11.10
2019-03-27T23:13:56.751Z,11.09
2019-03-27T23:16:46.018Z,11.10
2019-03-27T23:19:56.279Z,11.05
2019-03-27T23:22:27.091Z,11.00
2019-03-27T23:25:16.814Z,10.91
2019-03-27T23:28:25.014Z,10.97
2019-03-27T23:31:06.090Z,10.98
2019-03-27T23:33:55.344Z,11.03
2019-03-27T23:36:45.085Z,11.06
2019-03-27T23:39:26.747Z,11.03
2019-03-27T23:42:27.680Z,11.04
2019-03-27T23:45:08.663Z,11.06
2019-03-27T23:48:09.621Z,11.01
2019-03-27T23:50:51.268Z,10.95
2019-03-27T23:53:52.226Z,10.83
2019-03-27T23:56:33.156Z,10.82
